Dixon, Iowa
Current Conditions -  °F | °C
As of 3:52 AM on Friday 31 Oct 2014 (Local Time) from KDVN Reporting Station
Clear Clear  
Wind Chill: 28°   Ceiling: Unl
Heat Index: 39°   Visibility: 10mi
Dew Point: 21°   Wind: 23mph
Humidity: 49%   Direction: 330°NNW
Pressure: 30.17"   Gusts: 29mph
Location:  41.74°N, 90.78°W
Report Text: KDVN 310852Z AUTO 33020G25KT 10SM CLR 04/M06 A3017 RMK AO2 PK WND 33033/0800 SLP220 T00391061 53016 TSNO
Loading
Personal Weather Stations






























Interactive Weather Map New forecast layout! Learn more

10-Day Weather Forecast

Advertisements
Track Severe Weather on mobile